createdAt,value
2019-05-26T00:02:19.333Z,97107.30
2019-05-26T00:07:30.679Z,97107.30
2019-05-26T00:12:28.077Z,97105.27
2019-05-26T00:17:31.474Z,97104.66
2019-05-26T00:22:35.112Z,97108.59
2019-05-26T00:27:38.514Z,97106.95
2019-05-26T00:32:42.271Z,97100.20
2019-05-26T00:37:49.691Z,97101.86
2019-05-26T00:42:51.426Z,97100.14
2019-05-26T00:47:55.165Z,97089.77
2019-05-26T00:52:59.540Z,97091.61
2019-05-26T00:58:03.037Z,97092.69
2019-05-26T01:03:06.468Z,97085.28
2019-05-26T01:08:10.049Z,97084.36
2019-05-26T01:13:13.756Z,97080.22
2019-05-26T01:18:17.155Z,97086.23
2019-05-26T01:23:20.792Z,97081.70
2019-05-26T01:28:24.195Z,97078.25
2019-05-26T01:33:27.606Z,97077.53
2019-05-26T01:38:31.742Z,97081.51
2019-05-26T01:43:35.143Z,97077.42
2019-05-26T01:48:38.902Z,97073.69
2019-05-26T01:53:42.274Z,97076.55
2019-05-26T01:58:45.668Z,97078.95
2019-05-26T02:03:49.326Z,97071.44
2019-05-26T02:08:52.725Z,97078.20
2019-05-26T02:13:56.118Z,97076.40
2019-05-26T02:18:59.508Z,97077.17
2019-05-26T02:24:02.917Z,97071.52
2019-05-26T02:29:06.549Z,97076.68
2019-05-26T02:34:09.962Z,97080.98
2019-05-26T02:39:13.349Z,97080.98
2019-05-26T02:44:16.747Z,97081.34
2019-05-26T02:49:20.142Z,97080.13
2019-05-26T02:54:23.784Z,97077.84
2019-05-26T02:59:27.182Z,97076.52
2019-05-26T03:04:30.591Z,97079.77
2019-05-26T03:09:36.793Z,97067.09
2019-05-26T03:14:43.579Z,97086.17
2019-05-26T03:19:49.180Z,97074.67
2019-05-26T03:24:53.892Z,97078.34
2019-05-26T03:29:57.522Z,97084.63
2019-05-26T03:35:00.927Z,97073.25
2019-05-26T03:40:07.061Z,97075.08
2019-05-26T03:45:12.049Z,97077.45
2019-05-26T03:50:15.772Z,97073.72
2019-05-26T03:55:19.490Z,97094.48
2019-05-26T04:00:24.355Z,97094.48
2019-05-26T04:05:27.757Z,97092.91
2019-05-26T04:10:31.433Z,97103.95
2019-05-26T04:15:35.000Z,97104.38
2019-05-26T04:20:38.714Z,97101.53
2019-05-26T04:25:42.349Z,97105.12
2019-05-26T04:30:45.752Z,97109.70
2019-05-26T04:35:49.469Z,97119.41
2019-05-26T04:40:53.200Z,97118.69
2019-05-26T04:45:56.637Z,97121.72
2019-05-26T04:51:00.039Z,97121.72
2019-05-26T04:56:03.453Z,97123.82
2019-05-26T05:01:06.911Z,97124.37
2019-05-26T05:06:10.319Z,97132.33
2019-05-26T05:11:13.718Z,97133.80
2019-05-26T05:16:17.396Z,97132.00
2019-05-26T05:21:20.801Z,97134.66
2019-05-26T05:26:24.529Z,97126.28
2019-05-26T05:31:27.985Z,97124.53
2019-05-26T05:36:31.665Z,97124.53
2019-05-26T05:41:35.297Z,97131.30
2019-05-26T05:46:38.755Z,97131.83
2019-05-26T05:51:42.250Z,97128.45
2019-05-26T05:56:45.655Z,97128.45
2019-05-26T06:01:49.061Z,97132.20
2019-05-26T06:06:52.763Z,97141.64
2019-05-26T06:11:57.161Z,97147.52
2019-05-26T06:17:01.019Z,97142.50
2019-05-26T06:22:05.066Z,97149.13
2019-05-26T06:27:08.454Z,97136.09
2019-05-26T06:32:12.177Z,97141.08
2019-05-26T06:37:15.699Z,97139.01
2019-05-26T06:42:19.427Z,97133.86
2019-05-26T06:47:22.826Z,97135.61
2019-05-26T06:52:26.467Z,97142.82
2019-05-26T06:57:29.940Z,97152.03
2019-05-26T07:02:33.342Z,97148.80
2019-05-26T07:07:36.996Z,97148.70
2019-05-26T07:12:40.731Z,97151.38
2019-05-26T07:17:44.684Z,97145.62
2019-05-26T07:22:48.084Z,97151.12
2019-05-26T07:27:51.791Z,97156.86
2019-05-26T07:32:55.479Z,97159.00
2019-05-26T07:37:59.116Z,97157.42
2019-05-26T07:43:02.754Z,97157.58
2019-05-26T07:48:06.215Z,97152.02
2019-05-26T07:53:09.657Z,97150.87
2019-05-26T07:58:13.032Z,97147.64
2019-05-26T08:03:16.442Z,97159.59
2019-05-26T08:08:20.146Z,97144.66
2019-05-26T08:13:23.764Z,97143.39
2019-05-26T08:18:27.439Z,97141.91
2019-05-26T08:23:31.136Z,97142.63
2019-05-26T08:28:34.537Z,97145.39
2019-05-26T08:33:37.935Z,97133.29
2019-05-26T08:38:41.326Z,97134.34
2019-05-26T08:43:44.981Z,97128.41
2019-05-26T08:48:48.363Z,97124.41
2019-05-26T08:53:51.998Z,97130.08
2019-05-26T08:58:55.632Z,97126.48
2019-05-26T09:03:59.285Z,97121.16
2019-05-26T09:09:02.676Z,97120.75
2019-05-26T09:14:06.072Z,97116.86
2019-05-26T09:19:09.696Z,97115.09
2019-05-26T09:24:13.140Z,97116.64
2019-05-26T09:29:16.538Z,97121.92
2019-05-26T09:34:19.928Z,97115.78
2019-05-26T09:39:23.558Z,97107.47
2019-05-26T09:44:27.187Z,97104.20
2019-05-26T09:49:30.812Z,97097.84
2019-05-26T09:54:34.206Z,97098.11
2019-05-26T09:59:37.592Z,97095.57
2019-05-26T10:04:40.980Z,97088.22
2019-05-26T10:09:44.617Z,97085.16
2019-05-26T10:14:48.264Z,97095.38
2019-05-26T10:19:51.891Z,97086.50
2019-05-26T10:24:55.279Z,97082.45
2019-05-26T10:29:58.668Z,97078.52
2019-05-26T10:35:02.412Z,97087.53
2019-05-26T10:40:07.177Z,97079.47
2019-05-26T10:45:11.219Z,97078.98
2019-05-26T10:50:16.454Z,97077.75
2019-05-26T10:55:19.856Z,97074.22
2019-05-26T11:00:23.594Z,97081.00
2019-05-26T11:05:27.313Z,97084.66
2019-05-26T11:10:30.709Z,97076.34
2019-05-26T11:15:34.641Z,97067.09
2019-05-26T11:20:38.088Z,97065.24
2019-05-26T11:25:42.317Z,97053.05
2019-05-26T11:30:45.738Z,97049.84
2019-05-26T11:35:49.424Z,97048.03
2019-05-26T11:40:53.159Z,97040.34
2019-05-26T11:45:56.838Z,97028.48
2019-05-26T11:51:00.487Z,97028.81
2019-05-26T11:56:03.944Z,97023.12
2019-05-26T12:01:07.353Z,97017.35
2019-05-26T12:06:10.744Z,97006.72
2019-05-26T12:11:14.454Z,97007.42
2019-05-26T12:16:17.849Z,97009.51
2019-05-26T12:21:21.582Z,97001.27
2019-05-26T12:26:25.033Z,96995.44
2019-05-26T12:31:28.425Z,96990.16
2019-05-26T12:36:32.074Z,96974.72
2019-05-26T12:41:37.390Z,96970.52
2019-05-26T12:46:40.584Z,96973.78
2019-05-26T12:51:44.055Z,96963.67
2019-05-26T12:56:47.443Z,96956.06
2019-05-26T13:01:50.846Z,96948.86
2019-05-26T13:06:54.560Z,96933.33
2019-05-26T13:11:58.300Z,96932.14
2019-05-26T13:17:01.871Z,96934.20
2019-05-26T13:22:05.727Z,96925.42
2019-05-26T13:27:09.370Z,96922.84
2019-05-26T13:32:13.068Z,96919.82
2019-05-26T13:37:16.467Z,96920.84
2019-05-26T13:42:20.178Z,96918.80
2019-05-26T13:47:26.535Z,96911.83
2019-05-26T13:52:28.943Z,96908.13
2019-05-26T13:57:32.597Z,96904.92
2019-05-26T14:02:36.319Z,96909.44
2019-05-26T14:07:39.945Z,96908.92
2019-05-26T14:12:43.345Z,96914.83
2019-05-26T14:17:46.929Z,96913.35
2019-05-26T14:22:50.427Z,96906.42
2019-05-26T14:27:54.101Z,96911.33
2019-05-26T14:32:57.825Z,96907.42
2019-05-26T14:38:01.221Z,96906.42
2019-05-26T14:43:05.473Z,96908.15
2019-05-26T14:48:09.206Z,96899.45
2019-05-26T14:53:12.916Z,96906.82
2019-05-26T14:58:16.893Z,96900.72
2019-05-26T15:03:20.670Z,96896.08
2019-05-26T15:08:24.116Z,96884.72
2019-05-26T15:13:27.514Z,96882.91
2019-05-26T15:18:30.950Z,96880.41
2019-05-26T15:23:34.576Z,96874.48
2019-05-26T15:28:37.970Z,96870.00
2019-05-26T15:33:41.600Z,96864.08
2019-05-26T15:38:44.996Z,96866.04
2019-05-26T15:43:51.309Z,96868.67
2019-05-26T15:48:54.704Z,96859.23
2019-05-26T15:53:58.392Z,96855.69
2019-05-26T15:59:02.081Z,96847.56
2019-05-26T16:04:05.723Z,96851.00
2019-05-26T16:09:09.109Z,96851.67
2019-05-26T16:14:12.832Z,96851.45
2019-05-26T16:19:16.566Z,96846.41
2019-05-26T16:24:20.209Z,96833.89
2019-05-26T16:29:23.602Z,96833.62
2019-05-26T16:34:27.068Z,96832.27
2019-05-26T16:39:36.977Z,96825.57
2019-05-26T16:44:35.977Z,96822.53
2019-05-26T16:49:39.654Z,96822.91
2019-05-26T16:54:43.485Z,96825.98
2019-05-26T16:59:47.204Z,96815.63
2019-05-26T17:04:50.879Z,96815.42
2019-05-26T17:09:54.252Z,96812.27
2019-05-26T17:14:57.646Z,96810.22
2019-05-26T17:20:01.121Z,96796.16
2019-05-26T17:25:05.455Z,96802.11
2019-05-26T17:30:09.786Z,96799.72
2019-05-26T17:35:13.349Z,96804.58
2019-05-26T17:40:17.460Z,96799.63
2019-05-26T17:45:21.155Z,96790.30
2019-05-26T17:50:24.692Z,96793.38
2019-05-26T17:55:28.078Z,96786.02
2019-05-26T18:00:31.499Z,96781.81
2019-05-26T18:05:35.121Z,96782.10
2019-05-26T18:10:38.513Z,96780.61
2019-05-26T18:15:42.007Z,96772.66
2019-05-26T18:20:45.757Z,96770.47
2019-05-26T18:25:49.522Z,96761.80
2019-05-26T18:30:52.916Z,96753.70
2019-05-26T18:35:56.553Z,96755.72
2019-05-26T18:41:00.273Z,96756.19
2019-05-26T18:46:03.910Z,96756.34
2019-05-26T18:51:07.306Z,96759.95
2019-05-26T18:56:10.754Z,96759.87
2019-05-26T19:01:14.190Z,96762.45
2019-05-26T19:06:17.569Z,96766.84
2019-05-26T19:11:20.998Z,96762.61
2019-05-26T19:16:24.394Z,96767.31
2019-05-26T19:21:27.836Z,96772.00
2019-05-26T19:26:31.301Z,96781.01
2019-05-26T19:31:34.698Z,96780.78
2019-05-26T19:36:38.352Z,96778.77
2019-05-26T19:41:41.753Z,96784.45
2019-05-26T19:46:45.168Z,96791.51
2019-05-26T19:51:48.922Z,96792.87
2019-05-26T19:56:52.610Z,96807.33
2019-05-26T20:01:56.230Z,96802.95
2019-05-26T20:06:59.627Z,96801.91
2019-05-26T20:12:03.365Z,96803.55
2019-05-26T20:17:06.819Z,96799.52
2019-05-26T20:22:10.219Z,96797.41
2019-05-26T20:27:13.915Z,96799.11
2019-05-26T20:32:17.638Z,96802.70
2019-05-26T20:37:21.567Z,96799.11
2019-05-26T20:42:24.931Z,96797.95
2019-05-26T20:47:28.429Z,96797.03
2019-05-26T20:52:31.884Z,96796.08
2019-05-26T20:57:35.627Z,96796.53
2019-05-26T21:02:39.351Z,96795.97
2019-05-26T21:07:42.749Z,96795.83
2019-05-26T21:12:46.214Z,96800.22
2019-05-26T21:17:49.605Z,96801.93
2019-05-26T21:22:53.314Z,96800.66
2019-05-26T21:27:56.717Z,96805.13
2019-05-26T21:33:00.114Z,96805.70
2019-05-26T21:38:03.698Z,96797.06
2019-05-26T21:43:07.380Z,96800.05
2019-05-26T21:48:11.096Z,96799.20
2019-05-26T21:53:14.727Z,96799.52
2019-05-26T21:58:18.124Z,96795.36
2019-05-26T22:03:21.888Z,96797.69
2019-05-26T22:08:25.251Z,96793.80
2019-05-26T22:13:28.943Z,96789.30
2019-05-26T22:18:32.343Z,96791.55
2019-05-26T22:23:35.740Z,96789.38
2019-05-26T22:28:39.440Z,96782.23
2019-05-26T22:33:42.832Z,96781.48
2019-05-26T22:38:46.471Z,96778.61
2019-05-26T22:43:50.152Z,96782.10
2019-05-26T22:48:53.544Z,96771.75
2019-05-26T22:53:57.172Z,96792.98
2019-05-26T22:59:00.848Z,96779.62
2019-05-26T23:04:04.578Z,96778.00
2019-05-26T23:09:08.134Z,96778.00
2019-05-26T23:14:11.806Z,96771.20
2019-05-26T23:19:19.358Z,96772.69
2019-05-26T23:24:20.933Z,96764.44
2019-05-26T23:29:24.327Z,96752.86
2019-05-26T23:34:27.726Z,96746.62
2019-05-26T23:39:31.357Z,96745.66
2019-05-26T23:44:35.052Z,96739.78
2019-05-26T23:49:38.447Z,96738.22
2019-05-26T23:54:42.185Z,96735.91
2019-05-26T23:59:45.588Z,96732.33
